createdAt,value
2022-11-12T00:00:18.590Z,7.70
2022-11-12T00:03:13.190Z,7.00
2022-11-12T00:05:59.600Z,7.60
2022-11-12T00:08:45.454Z,10.10
2022-11-12T00:11:30.918Z,11.00
2022-11-12T00:14:16.370Z,13.00
2022-11-12T00:17:04.735Z,12.00
2022-11-12T00:19:52.786Z,13.20
2022-11-12T00:22:38.309Z,9.30
2022-11-12T00:25:25.086Z,8.30
2022-11-12T00:28:11.457Z,6.50
2022-11-12T00:30:57.467Z,7.60
2022-11-12T00:33:43.728Z,8.30
2022-11-12T00:36:31.135Z,8.20
2022-11-12T00:39:18.818Z,9.90
2022-11-12T00:42:05.223Z,11.50
2022-11-12T00:44:51.018Z,12.20
2022-11-12T00:47:36.396Z,11.60
2022-11-12T00:50:21.585Z,11.50
2022-11-12T00:53:07.317Z,12.20
2022-11-12T00:55:53.281Z,12.00
2022-11-12T00:58:39.236Z,12.20
2022-11-12T01:01:25.420Z,11.50
2022-11-12T01:04:11.247Z,11.00
2022-11-12T01:06:57.873Z,9.60
2022-11-12T01:09:43.271Z,12.80
2022-11-12T01:12:31.704Z,12.50
2022-11-12T01:15:17.351Z,11.90
2022-11-12T01:18:03.551Z,12.80
2022-11-12T01:20:50.162Z,14.90
2022-11-12T01:23:39.222Z,15.40
2022-11-12T01:26:27.875Z,16.00
2022-11-12T01:29:13.555Z,15.70
2022-11-12T01:31:58.973Z,13.80
2022-11-12T01:34:45.213Z,16.20
2022-11-12T01:37:30.902Z,16.00
2022-11-12T01:40:18.116Z,16.30
2022-11-12T01:43:09.159Z,17.20
2022-11-12T01:45:57.215Z,16.80
2022-11-12T01:48:56.461Z,15.90
2022-11-12T01:51:50.288Z,17.10
2022-11-12T01:54:37.061Z,14.10
2022-11-12T01:57:45.988Z,14.60
2022-11-12T02:00:31.687Z,12.60
2022-11-12T02:03:23.100Z,14.40
2022-11-12T02:06:14.063Z,13.40
2022-11-12T02:08:59.709Z,11.50
2022-11-12T02:11:45.623Z,11.70
2022-11-12T02:14:31.596Z,10.90
2022-11-12T02:17:19.689Z,10.70
2022-11-12T02:20:13.087Z,13.70
2022-11-12T02:22:59.893Z,17.70
2022-11-12T02:25:46.033Z,19.60
2022-11-12T02:28:33.125Z,22.20
2022-11-12T02:31:19.209Z,18.40
2022-11-12T02:34:05.191Z,18.70
2022-11-12T02:36:52.263Z,14.60
2022-11-12T02:39:38.326Z,11.80
2022-11-12T02:42:23.543Z,10.20
2022-11-12T02:45:09.757Z,8.90
2022-11-12T02:47:55.160Z,11.40
2022-11-12T02:50:42.171Z,8.80
2022-11-12T02:53:27.427Z,11.40
2022-11-12T02:56:12.526Z,12.40
2022-11-12T02:58:58.086Z,9.10
2022-11-12T03:01:43.333Z,11.40
2022-11-12T03:04:29.096Z,8.80
2022-11-12T03:07:14.787Z,8.80
2022-11-12T03:10:01.015Z,8.80
2022-11-12T03:12:46.882Z,8.60
2022-11-12T03:18:49.499Z,7.80
2022-11-12T03:21:40.061Z,7.30
2022-11-12T03:27:31.612Z,8.40
2022-11-12T03:30:18.087Z,9.10
2022-11-12T03:33:03.665Z,7.50
2022-11-12T03:35:49.357Z,9.30
2022-11-12T03:38:34.976Z,8.50
2022-11-12T03:41:22.899Z,9.40
2022-11-12T03:44:09.426Z,10.20
2022-11-12T03:46:56.012Z,8.40
2022-11-12T03:49:41.119Z,8.70
2022-11-12T03:52:26.981Z,11.90
2022-11-12T03:55:15.996Z,17.80
2022-11-12T03:58:01.756Z,15.60
2022-11-12T04:00:47.305Z,11.70
2022-11-12T04:03:34.390Z,13.20
2022-11-12T04:06:40.653Z,11.00
2022-11-12T04:09:25.853Z,11.20
2022-11-12T04:12:29.874Z,10.70
2022-11-12T04:15:15.539Z,12.90
2022-11-12T04:18:21.260Z,12.90
2022-11-12T04:21:27.673Z,21.50
2022-11-12T04:24:34.009Z,19.70
2022-11-12T04:27:37.410Z,20.00
2022-11-12T04:30:23.546Z,17.20
2022-11-12T04:33:09.126Z,16.70
2022-11-12T04:35:55.185Z,12.80
2022-11-12T04:38:41.878Z,11.00
2022-11-12T04:41:48.578Z,10.30
2022-11-12T04:44:53.894Z,9.90
2022-11-12T04:47:43.284Z,8.00
2022-11-12T04:50:29.202Z,9.40
2022-11-12T04:53:15.203Z,10.40
2022-11-12T04:56:01.621Z,13.50
2022-11-12T04:58:47.087Z,10.00
2022-11-12T05:01:33.295Z,9.10
2022-11-12T05:04:19.809Z,12.00
2022-11-12T05:07:05.293Z,11.80
2022-11-12T05:09:52.419Z,10.20
2022-11-12T05:12:38.209Z,13.10
2022-11-12T05:15:24.106Z,11.40
2022-11-12T05:18:09.829Z,11.50
2022-11-12T05:20:55.092Z,10.00
2022-11-12T05:23:42.121Z,11.30
2022-11-12T05:26:27.389Z,12.20
2022-11-12T05:29:13.110Z,11.70
2022-11-12T05:32:00.143Z,11.80
2022-11-12T05:34:45.986Z,12.70
2022-11-12T05:37:31.642Z,11.30
2022-11-12T05:40:20.991Z,10.70
2022-11-12T05:43:08.512Z,13.40
2022-11-12T05:46:19.308Z,14.70
2022-11-12T05:49:08.844Z,18.10
2022-11-12T05:51:55.164Z,15.50
2022-11-12T05:54:41.050Z,13.90
2022-11-12T05:57:28.041Z,14.20
2022-11-12T06:00:18.098Z,12.10
2022-11-12T06:03:05.976Z,11.00
2022-11-12T06:05:53.217Z,24.30
2022-11-12T06:08:39.897Z,35.70
2022-11-12T06:11:25.887Z,36.80
2022-11-12T06:14:12.669Z,23.20
2022-11-12T06:17:00.164Z,19.80
2022-11-12T06:19:49.462Z,19.10
2022-11-12T06:22:35.776Z,15.60
2022-11-12T06:25:24.161Z,15.90
2022-11-12T06:28:12.126Z,16.60
2022-11-12T06:31:06.372Z,13.10
2022-11-12T06:34:00.232Z,19.10
2022-11-12T06:36:48.348Z,24.80
2022-11-12T06:39:37.166Z,27.10
2022-11-12T06:42:24.220Z,25.60
2022-11-12T06:45:10.512Z,24.60
2022-11-12T06:48:02.198Z,34.50
2022-11-12T06:54:03.315Z,16.10
2022-11-12T06:57:05.755Z,14.90
2022-11-12T06:59:51.934Z,17.30
2022-11-12T07:02:37.996Z,16.40
2022-11-12T07:05:24.831Z,13.80
2022-11-12T07:08:12.714Z,15.50
2022-11-12T07:11:00.183Z,14.20
2022-11-12T07:13:48.575Z,18.70
2022-11-12T07:20:07.804Z,8.90
2022-11-12T07:23:14.717Z,11.10
2022-11-12T07:26:33.872Z,20.00
2022-11-12T07:29:42.591Z,30.60
2022-11-12T07:32:40.234Z,41.40
2022-11-12T07:35:30.616Z,19.80
2022-11-12T07:38:18.819Z,13.80
2022-11-12T07:41:59.032Z,13.60
2022-11-12T07:44:44.691Z,13.80
2022-11-12T07:47:31.978Z,12.30
2022-11-12T07:50:49.303Z,12.00
2022-11-12T07:57:01.062Z,13.80
2022-11-12T07:59:47.984Z,13.90
2022-11-12T08:02:34.187Z,17.30
2022-11-12T08:05:21.460Z,19.10
2022-11-12T08:08:09.300Z,21.80
2022-11-12T08:10:56.857Z,18.90
2022-11-12T08:13:43.205Z,13.90
2022-11-12T08:16:39.028Z,13.50
2022-11-12T08:19:24.609Z,11.80
2022-11-12T08:22:13.769Z,12.20
2022-11-12T08:25:00.826Z,11.40
2022-11-12T08:27:48.805Z,9.80
2022-11-12T08:30:47.877Z,14.20
2022-11-12T08:37:28.901Z,9.10
2022-11-12T08:40:15.196Z,8.50
2022-11-12T08:46:37.625Z,9.30
2022-11-12T08:49:48.159Z,10.10
2022-11-12T08:52:47.142Z,8.80
2022-11-12T08:56:01.181Z,14.50
2022-11-12T08:59:07.050Z,19.60
2022-11-12T09:08:26.501Z,12.70
2022-11-12T09:11:13.612Z,14.80
2022-11-12T09:13:59.323Z,11.50
2022-11-12T09:17:11.648Z,11.80
2022-11-12T09:20:01.893Z,13.50
2022-11-12T09:26:04.804Z,18.70
2022-11-12T09:28:53.442Z,14.50
2022-11-12T09:31:39.242Z,16.10
2022-11-12T09:34:25.895Z,17.40
2022-11-12T09:37:19.677Z,12.70
2022-11-12T09:41:03.915Z,16.30
2022-11-12T09:43:56.565Z,9.20
2022-11-12T09:46:52.084Z,11.20
2022-11-12T09:50:02.544Z,10.90
2022-11-12T09:52:59.247Z,12.50
2022-11-12T09:55:59.516Z,9.50
2022-11-12T10:05:23.465Z,11.70
2022-11-12T10:08:37.798Z,11.20
2022-11-12T10:12:04.420Z,9.40
2022-11-12T10:15:30.812Z,8.80
2022-11-12T10:18:35.713Z,10.60
2022-11-12T10:25:00.192Z,14.10
2022-11-12T10:27:46.768Z,32.40
2022-11-12T10:30:36.089Z,23.50
2022-11-12T10:33:22.368Z,17.70
2022-11-12T10:36:36.144Z,12.10
2022-11-12T10:39:35.151Z,12.50
2022-11-12T10:42:24.375Z,6.20
2022-11-12T10:45:21.531Z,10.10
2022-11-12T10:48:24.468Z,10.80
2022-11-12T10:51:36.871Z,6.00
2022-11-12T10:54:38.424Z,5.60
2022-11-12T10:57:29.643Z,4.70
2022-11-12T11:00:19.941Z,6.00
2022-11-12T11:03:24.515Z,7.60
2022-11-12T11:06:15.987Z,6.20
2022-11-12T11:09:10.185Z,7.60
2022-11-12T11:11:56.031Z,6.60
2022-11-12T11:14:44.125Z,9.30
2022-11-12T11:17:34.971Z,8.20
2022-11-12T11:20:26.395Z,9.40
2022-11-12T11:23:28.561Z,5.50
2022-11-12T11:26:59.494Z,4.90
2022-11-12T11:29:54.057Z,8.00
2022-11-12T11:33:21.069Z,5.40
2022-11-12T11:36:31.112Z,6.50
2022-11-12T11:39:22.629Z,4.90
2022-11-12T11:42:07.897Z,6.80
2022-11-12T11:44:56.979Z,5.50
2022-11-12T11:48:02.498Z,8.60
2022-11-12T11:51:14.051Z,7.90
2022-11-12T11:54:16.452Z,7.20
2022-11-12T11:57:11.796Z,6.60
2022-11-12T12:00:23.398Z,7.00
2022-11-12T12:03:22.606Z,6.60
2022-11-12T12:06:17.981Z,8.00
2022-11-12T12:09:40.782Z,5.70
2022-11-12T12:12:59.470Z,7.30
2022-11-12T12:15:58.757Z,5.30
2022-11-12T12:19:06.419Z,5.60
2022-11-12T12:21:54.545Z,4.90
2022-11-12T12:24:56.717Z,6.80
2022-11-12T12:27:53.562Z,6.20
2022-11-12T12:30:50.470Z,4.70
2022-11-12T12:33:49.546Z,6.30
2022-11-12T12:36:41.753Z,7.70
2022-11-12T12:39:48.065Z,5.80
2022-11-12T12:43:02.642Z,7.00
2022-11-12T12:45:49.387Z,9.70
2022-11-12T12:48:40.541Z,10.50
2022-11-12T12:51:32.254Z,8.60
2022-11-12T12:54:36.128Z,31.30
2022-11-12T12:57:39.717Z,9.10
2022-11-12T13:00:39.225Z,9.30
2022-11-12T13:04:08.329Z,10.60
2022-11-12T13:06:55.194Z,8.40
2022-11-12T13:09:41.205Z,9.70
2022-11-12T13:13:05.279Z,8.80
2022-11-12T13:15:57.734Z,10.20
2022-11-12T13:19:11.120Z,17.80
2022-11-12T13:22:23.575Z,7.50
2022-11-12T13:25:13.309Z,8.10
2022-11-12T13:28:31.749Z,8.10
2022-11-12T13:31:44.668Z,9.50
2022-11-12T13:35:14.842Z,8.10
2022-11-12T13:38:12.086Z,8.00
2022-11-12T13:41:07.801Z,8.10
2022-11-12T13:43:57.033Z,7.60
2022-11-12T13:46:47.613Z,8.20
2022-11-12T13:49:35.289Z,7.60
2022-11-12T13:52:25.204Z,8.40
2022-11-12T13:59:38.209Z,13.70
2022-11-12T14:02:27.101Z,11.90
2022-11-12T14:05:20.040Z,11.40
2022-11-12T14:08:14.366Z,11.20
2022-11-12T14:11:22.024Z,13.40
2022-11-12T14:14:50.258Z,11.00
2022-11-12T14:18:14.203Z,16.30
2022-11-12T14:21:40.239Z,18.20
2022-11-12T14:26:08.719Z,13.90
2022-11-12T14:36:15.679Z,7.40
2022-11-12T14:39:02.013Z,9.30
2022-11-12T14:41:51.675Z,11.30
2022-11-12T14:45:02.988Z,17.30
2022-11-12T14:47:52.037Z,11.30
2022-11-12T14:50:41.151Z,14.10
2022-11-12T14:53:39.537Z,18.40
2022-11-12T15:04:19.048Z,15.80
2022-11-12T15:07:07.185Z,14.90
2022-11-12T15:09:54.823Z,14.80
2022-11-12T15:12:44.335Z,18.60
2022-11-12T15:15:34.119Z,27.90
2022-11-12T15:18:28.047Z,29.90
2022-11-12T15:21:33.812Z,26.70
2022-11-12T15:24:44.703Z,30.10
2022-11-12T15:27:51.945Z,33.40
2022-11-12T15:31:08.800Z,27.90
2022-11-12T15:34:29.120Z,32.80
2022-11-12T15:37:19.809Z,30.00
2022-11-12T15:40:12.790Z,32.50
2022-11-12T15:43:02.699Z,28.50
2022-11-12T15:45:55.913Z,30.80
2022-11-12T15:48:44.108Z,33.50
2022-11-12T15:51:33.026Z,27.90
2022-11-12T15:54:23.932Z,33.70
2022-11-12T15:57:23.650Z,48.50
2022-11-12T16:00:35.038Z,74.30
2022-11-12T16:03:23.091Z,90.00
2022-11-12T16:06:12.228Z,73.20
2022-11-12T16:08:58.792Z,45.90
2022-11-12T16:11:58.644Z,66.80
2022-11-12T16:14:45.086Z,36.50
2022-11-12T16:17:37.662Z,38.30
2022-11-12T16:20:30.440Z,38.90
2022-11-12T16:23:25.393Z,40.00
2022-11-12T16:26:24.766Z,43.00
2022-11-12T16:29:15.077Z,40.40
2022-11-12T16:32:03.562Z,40.20
2022-11-12T16:35:01.091Z,41.90
2022-11-12T16:37:52.062Z,42.20
2022-11-12T16:40:43.310Z,48.40
2022-11-12T16:43:32.110Z,59.60
2022-11-12T16:46:35.476Z,64.20
2022-11-12T16:49:23.818Z,45.60
2022-11-12T16:52:11.648Z,41.80
2022-11-12T16:55:04.092Z,39.00
2022-11-12T16:57:51.846Z,37.50
2022-11-12T17:00:39.159Z,34.80
2022-11-12T17:03:28.949Z,33.90
2022-11-12T17:06:23.795Z,34.40
2022-11-12T17:09:25.340Z,38.00
2022-11-12T17:12:27.199Z,38.20
2022-11-12T17:15:14.793Z,42.80
2022-11-12T17:18:03.549Z,34.20
2022-11-12T17:20:55.346Z,39.20
2022-11-12T17:23:45.062Z,60.30
2022-11-12T17:26:36.274Z,66.90
2022-11-12T17:29:25.072Z,56.60
2022-11-12T17:32:11.823Z,150.40
2022-11-12T17:35:01.609Z,221.80
2022-11-12T17:37:58.699Z,245.20
2022-11-12T17:40:47.912Z,276.00
2022-11-12T17:43:41.033Z,240.70
2022-11-12T17:46:29.994Z,142.50
2022-11-12T17:49:18.659Z,110.60
2022-11-12T17:52:05.200Z,160.10
2022-11-12T17:54:56.069Z,150.20
2022-11-12T17:57:48.957Z,159.40
2022-11-12T18:00:38.988Z,154.50
2022-11-12T18:03:28.889Z,143.50
2022-11-12T18:06:22.542Z,163.70
2022-11-12T18:09:15.174Z,167.50
2022-11-12T18:12:03.753Z,173.20
2022-11-12T18:14:52.148Z,178.20
2022-11-12T18:17:40.349Z,147.30
2022-11-12T18:20:27.012Z,133.60
2022-11-12T18:23:18.607Z,119.70
2022-11-12T18:26:07.680Z,115.70
2022-11-12T18:29:04.065Z,103.30
2022-11-12T18:32:03.914Z,102.00
2022-11-12T18:34:52.229Z,94.50
2022-11-12T18:37:39.924Z,81.30
2022-11-12T18:40:31.472Z,91.60
2022-11-12T18:43:26.767Z,87.60
2022-11-12T18:46:24.709Z,90.40
2022-11-12T18:49:14.175Z,78.10
2022-11-12T18:52:07.987Z,82.40
2022-11-12T18:54:56.064Z,76.80
2022-11-12T18:57:43.428Z,84.40
2022-11-12T19:00:31.845Z,73.40
2022-11-12T19:03:18.336Z,76.30
2022-11-12T19:06:07.435Z,77.80
2022-11-12T19:09:00.934Z,79.40
2022-11-12T19:11:48.678Z,78.80
2022-11-12T19:14:37.029Z,86.70
2022-11-12T19:17:30.596Z,92.40
2022-11-12T19:20:20.024Z,100.50
2022-11-12T19:23:08.086Z,97.40
2022-11-12T19:26:03.182Z,116.80
2022-11-12T19:28:50.949Z,129.50
2022-11-12T19:31:38.011Z,130.40
2022-11-12T19:34:25.043Z,144.20
2022-11-12T19:40:22.728Z,169.00
2022-11-12T19:43:10.305Z,189.90
2022-11-12T19:45:56.923Z,188.60
2022-11-12T19:48:46.269Z,193.50
2022-11-12T19:51:33.732Z,167.40
2022-11-12T19:54:21.862Z,196.30
2022-11-12T19:57:12.399Z,171.40
2022-11-12T19:59:59.677Z,168.30
2022-11-12T20:02:48.083Z,163.50
2022-11-12T20:05:36.861Z,158.50
2022-11-12T20:08:25.224Z,163.60
2022-11-12T20:11:13.878Z,159.90
2022-11-12T20:14:00.825Z,170.80
2022-11-12T20:16:49.680Z,172.40
2022-11-12T20:19:39.852Z,164.80
2022-11-12T20:22:32.046Z,161.90
2022-11-12T20:25:19.514Z,145.90
2022-11-12T20:28:07.507Z,161.90
2022-11-12T20:31:01.814Z,145.10
2022-11-12T20:36:45.753Z,110.20
2022-11-12T20:39:33.665Z,122.60
2022-11-12T20:42:20.107Z,116.10
2022-11-12T20:45:08.528Z,102.60
2022-11-12T20:47:59.013Z,100.60
2022-11-12T20:51:09.367Z,107.20
2022-11-12T20:53:59.495Z,93.40
2022-11-12T20:56:51.660Z,90.30
2022-11-12T20:59:42.983Z,100.70
2022-11-12T21:02:33.766Z,101.30
2022-11-12T21:05:20.894Z,105.10
2022-11-12T21:08:07.622Z,107.90
2022-11-12T21:10:56.249Z,108.10
2022-11-12T21:13:43.824Z,100.90
2022-11-12T21:16:32.854Z,98.80
2022-11-12T21:19:19.437Z,97.30
2022-11-12T21:22:07.412Z,94.10
2022-11-12T21:24:55.814Z,91.70
2022-11-12T21:27:48.525Z,87.60
2022-11-12T21:30:36.473Z,84.60
2022-11-12T21:33:26.808Z,86.90
2022-11-12T21:36:16.704Z,95.00
2022-11-12T21:39:06.104Z,90.10
2022-11-12T21:41:55.097Z,97.10
2022-11-12T21:44:42.356Z,93.80
2022-11-12T21:47:29.240Z,90.20
2022-11-12T21:50:17.064Z,69.40
2022-11-12T21:53:03.744Z,80.70
2022-11-12T21:55:50.378Z,91.00
2022-11-12T21:58:38.013Z,84.50
2022-11-12T22:01:26.153Z,85.00
2022-11-12T22:04:17.969Z,75.90
2022-11-12T22:07:06.232Z,74.40
2022-11-12T22:09:56.856Z,66.40
2022-11-12T22:13:04.995Z,66.10
2022-11-12T22:15:51.342Z,60.80
2022-11-12T22:18:39.280Z,56.20
2022-11-12T22:21:30.667Z,55.80
2022-11-12T22:24:18.516Z,57.60
2022-11-12T22:27:06.080Z,57.20
2022-11-12T22:29:54.227Z,61.60
2022-11-12T22:32:40.920Z,67.50
2022-11-12T22:35:27.602Z,56.70
2022-11-12T22:38:14.518Z,53.80
2022-11-12T22:41:06.947Z,50.50
2022-11-12T22:43:58.031Z,49.90
2022-11-12T22:46:44.697Z,47.80
2022-11-12T22:49:31.344Z,52.70
2022-11-12T22:52:18.291Z,48.60
2022-11-12T22:55:06.392Z,49.90
2022-11-12T22:57:53.073Z,54.30
2022-11-12T23:00:40.779Z,50.00
2022-11-12T23:03:31.215Z,51.00
2022-11-12T23:06:20.596Z,49.40
2022-11-12T23:09:08.121Z,48.70
2022-11-12T23:11:57.212Z,51.90
2022-11-12T23:14:45.010Z,52.20
2022-11-12T23:17:31.802Z,51.30
2022-11-12T23:20:18.668Z,48.90
2022-11-12T23:23:06.358Z,50.90
2022-11-12T23:25:52.836Z,49.90
2022-11-12T23:28:39.647Z,45.60
2022-11-12T23:31:30.415Z,48.80
2022-11-12T23:34:16.999Z,49.20
2022-11-12T23:37:04.801Z,44.10
2022-11-12T23:39:51.703Z,48.40
2022-11-12T23:42:38.207Z,45.80
2022-11-12T23:45:24.968Z,52.40
2022-11-12T23:48:11.884Z,47.10
2022-11-12T23:51:22.034Z,47.00
2022-11-12T23:54:10.101Z,48.70
2022-11-12T23:56:56.735Z,46.00
2022-11-12T23:59:43.499Z,48.30
